createdAt,value
2022-09-17T00:00:04.901Z,1003.36
2022-09-17T00:00:40.213Z,1003.31
2022-09-17T00:01:15.522Z,1003.31
2022-09-17T00:01:50.802Z,1003.31
2022-09-17T00:02:26.288Z,1003.33
2022-09-17T00:03:01.347Z,1003.37
2022-09-17T00:03:36.439Z,1003.35
2022-09-17T00:04:11.749Z,1003.34
2022-09-17T00:04:47.046Z,1003.35
2022-09-17T00:05:22.180Z,1003.36
2022-09-17T00:05:57.387Z,1003.38
2022-09-17T00:06:32.939Z,1003.34
2022-09-17T00:07:08.033Z,1003.40
2022-09-17T00:07:43.264Z,1003.34
2022-09-17T00:08:18.361Z,1003.36
2022-09-17T00:08:54.063Z,1003.36
2022-09-17T00:09:29.310Z,1003.38
2022-09-17T00:10:04.520Z,1003.38
2022-09-17T00:10:39.621Z,1003.38
2022-09-17T00:11:14.631Z,1003.36
2022-09-17T00:11:49.421Z,1003.35
2022-09-17T00:12:24.647Z,1003.39
2022-09-17T00:12:59.939Z,1003.37
2022-09-17T00:13:35.568Z,1003.39
2022-09-17T00:14:10.791Z,1003.39
2022-09-17T00:14:45.812Z,1003.42
2022-09-17T00:15:20.806Z,1003.41
2022-09-17T00:15:56.047Z,1003.44
2022-09-17T00:16:31.044Z,1003.43
2022-09-17T00:17:06.230Z,1003.41
2022-09-17T00:17:41.316Z,1003.38
2022-09-17T00:18:16.442Z,1003.41
2022-09-17T00:18:51.738Z,1003.43
2022-09-17T00:19:27.208Z,1003.40
2022-09-17T00:20:02.450Z,1003.38
2022-09-17T00:20:37.548Z,1003.44
2022-09-17T00:21:12.846Z,1003.37
2022-09-17T00:21:47.975Z,1003.43
2022-09-17T00:22:23.168Z,1003.43
2022-09-17T00:22:58.514Z,1003.42
2022-09-17T00:23:33.922Z,1003.47
2022-09-17T00:24:09.164Z,1003.42
2022-09-17T00:24:44.373Z,1003.41
2022-09-17T00:25:19.593Z,1003.44
2022-09-17T00:25:54.530Z,1003.42
2022-09-17T00:26:29.867Z,1003.41
2022-09-17T00:27:05.152Z,1003.42
2022-09-17T00:27:40.451Z,1003.43
2022-09-17T00:28:15.452Z,1003.45
2022-09-17T00:28:50.458Z,1003.43
2022-09-17T00:29:25.860Z,1003.41
2022-09-17T00:30:01.111Z,1003.46
2022-09-17T00:30:36.095Z,1003.47
2022-09-17T00:31:11.357Z,1003.47
2022-09-17T00:31:46.603Z,1003.45
2022-09-17T00:32:22.059Z,1003.45
2022-09-17T00:32:57.453Z,1003.47
2022-09-17T00:33:32.654Z,1003.47
2022-09-17T00:34:07.635Z,1003.49
2022-09-17T00:34:42.753Z,1003.48
2022-09-17T00:35:17.788Z,1003.46
2022-09-17T00:35:52.804Z,1003.52
2022-09-17T00:36:28.285Z,1003.54
2022-09-17T00:37:03.302Z,1003.54
2022-09-17T00:37:38.605Z,1003.53
2022-09-17T00:38:14.028Z,1003.52
2022-09-17T00:38:49.341Z,1003.48
2022-09-17T00:39:24.577Z,1003.51
2022-09-17T00:40:00.015Z,1003.51
2022-09-17T00:40:35.647Z,1003.52
2022-09-17T00:41:10.783Z,1003.50
2022-09-17T00:41:45.990Z,1003.55
2022-09-17T00:42:21.661Z,1003.56
2022-09-17T00:42:56.570Z,1003.53
2022-09-17T00:43:31.946Z,1003.51
2022-09-17T00:44:07.340Z,1003.52
2022-09-17T00:44:42.339Z,1003.52
2022-09-17T00:45:17.542Z,1003.54
2022-09-17T00:45:52.688Z,1003.51
2022-09-17T00:46:27.873Z,1003.54
2022-09-17T00:47:02.873Z,1003.57
2022-09-17T00:47:38.608Z,1003.57
2022-09-17T00:48:13.910Z,1003.56
2022-09-17T00:48:49.011Z,1003.55
2022-09-17T00:49:24.113Z,1003.52
2022-09-17T00:49:59.756Z,1003.53
2022-09-17T00:50:34.957Z,1003.57
2022-09-17T00:51:10.385Z,1003.58
2022-09-17T00:51:45.782Z,1003.57
2022-09-17T00:52:21.103Z,1003.60
2022-09-17T00:52:56.220Z,1003.59
2022-09-17T00:53:31.452Z,1003.62
2022-09-17T00:54:06.451Z,1003.59
2022-09-17T00:54:41.665Z,1003.57
2022-09-17T00:55:16.769Z,1003.53
2022-09-17T00:55:51.871Z,1003.53
2022-09-17T00:56:27.303Z,1003.57
2022-09-17T00:57:02.609Z,1003.54
2022-09-17T00:57:37.616Z,1003.58
2022-09-17T00:58:12.835Z,1003.54
2022-09-17T00:58:48.037Z,1003.57
2022-09-17T00:59:23.383Z,1003.60
2022-09-17T00:59:58.691Z,1003.56
2022-09-17T01:00:34.067Z,1003.56
2022-09-17T01:01:09.144Z,1003.61
2022-09-17T01:01:44.389Z,1003.57
2022-09-17T01:02:19.304Z,1003.60
2022-09-17T01:02:54.469Z,1003.61
2022-09-17T01:03:29.783Z,1003.59
2022-09-17T01:04:04.998Z,1003.60
2022-09-17T01:04:40.505Z,1003.58
2022-09-17T01:05:15.936Z,1003.60
2022-09-17T01:05:51.138Z,1003.57
2022-09-17T01:06:26.476Z,1003.55
2022-09-17T01:07:01.986Z,1003.58
2022-09-17T01:07:37.303Z,1003.61
2022-09-17T01:08:12.514Z,1003.66
2022-09-17T01:08:48.097Z,1003.62
2022-09-17T01:09:23.336Z,1003.65
2022-09-17T01:09:58.687Z,1003.62
2022-09-17T01:10:34.004Z,1003.72
2022-09-17T01:11:09.243Z,1003.69
2022-09-17T01:11:44.442Z,1003.64
2022-09-17T01:12:19.770Z,1003.68
2022-09-17T01:12:54.669Z,1003.68
2022-09-17T01:13:29.705Z,1003.66
2022-09-17T01:14:04.903Z,1003.66
2022-09-17T01:14:40.129Z,1003.65
2022-09-17T01:15:15.250Z,1003.64
2022-09-17T01:15:51.028Z,1003.68
2022-09-17T01:16:26.024Z,1003.70
2022-09-17T01:17:01.155Z,1003.65
2022-09-17T01:17:36.553Z,1003.69
2022-09-17T01:18:11.881Z,1003.66
2022-09-17T01:18:47.287Z,1003.65
2022-09-17T01:19:22.499Z,1003.68
2022-09-17T01:19:57.604Z,1003.64
2022-09-17T01:20:32.794Z,1003.62
2022-09-17T01:21:07.889Z,1003.66
2022-09-17T01:21:43.132Z,1003.63
2022-09-17T01:22:18.354Z,1003.67
2022-09-17T01:22:53.670Z,1003.69
2022-09-17T01:23:29.069Z,1003.67
2022-09-17T01:24:04.181Z,1003.66
2022-09-17T01:24:39.477Z,1003.68
2022-09-17T01:25:14.908Z,1003.67
2022-09-17T01:25:50.118Z,1003.65
2022-09-17T01:26:25.434Z,1003.64
2022-09-17T01:27:00.661Z,1003.68
2022-09-17T01:27:35.985Z,1003.62
2022-09-17T01:28:11.293Z,1003.67
2022-09-17T01:28:46.405Z,1003.66
2022-09-17T01:29:21.809Z,1003.63
2022-09-17T01:29:56.827Z,1003.67
2022-09-17T01:30:31.836Z,1003.67
2022-09-17T01:31:07.510Z,1003.67
2022-09-17T01:31:42.723Z,1003.65
2022-09-17T01:32:18.118Z,1003.68
2022-09-17T01:32:53.385Z,1003.65
2022-09-17T01:33:28.918Z,1003.66
2022-09-17T01:34:04.013Z,1003.69
2022-09-17T01:34:39.298Z,1003.70
2022-09-17T01:35:14.605Z,1003.72
2022-09-17T01:35:49.711Z,1003.70
2022-09-17T01:36:24.925Z,1003.70
2022-09-17T01:36:59.950Z,1003.70
2022-09-17T01:37:35.359Z,1003.72
2022-09-17T01:38:10.383Z,1003.70
2022-09-17T01:38:46.106Z,1003.73
2022-09-17T01:39:21.148Z,1003.72
2022-09-17T01:39:56.494Z,1003.72
2022-09-17T01:40:31.411Z,1003.77
2022-09-17T01:41:06.690Z,1003.79
2022-09-17T01:41:41.844Z,1003.80
2022-09-17T01:42:17.289Z,1003.77
2022-09-17T01:42:52.623Z,1003.75
2022-09-17T01:43:28.165Z,1003.77
2022-09-17T01:44:03.324Z,1003.79
2022-09-17T01:44:38.724Z,1003.80
2022-09-17T01:45:14.242Z,1003.83
2022-09-17T01:45:49.445Z,1003.81
2022-09-17T01:46:25.057Z,1003.81
2022-09-17T01:47:00.477Z,1003.79
2022-09-17T01:47:35.823Z,1003.82
2022-09-17T01:48:10.938Z,1003.80
2022-09-17T01:48:46.089Z,1003.84
2022-09-17T01:49:21.115Z,1003.83
2022-09-17T01:49:56.524Z,1003.82
2022-09-17T01:50:32.043Z,1003.81
2022-09-17T01:51:07.443Z,1003.81
2022-09-17T01:51:42.489Z,1003.81
2022-09-17T01:52:18.169Z,1003.76
2022-09-17T01:52:53.388Z,1003.80
2022-09-17T01:53:28.640Z,1003.78
2022-09-17T01:54:03.959Z,1003.76
2022-09-17T01:54:41.926Z,1003.74
2022-09-17T01:55:14.463Z,1003.76
2022-09-17T01:55:49.802Z,1003.72
2022-09-17T01:56:25.113Z,1003.71
2022-09-17T01:57:00.710Z,1003.72
2022-09-17T01:57:36.127Z,1003.74
2022-09-17T01:58:11.737Z,1003.78
2022-09-17T01:58:47.170Z,1003.81
2022-09-17T01:59:22.483Z,1003.79
2022-09-17T01:59:57.843Z,1003.79
2022-09-17T02:00:33.308Z,1003.80
2022-09-17T02:01:08.669Z,1003.76
2022-09-17T02:01:43.634Z,1003.80
2022-09-17T02:02:18.672Z,1003.80
2022-09-17T02:02:53.789Z,1003.81
2022-09-17T02:03:28.825Z,1003.72
2022-09-17T02:04:04.407Z,1003.79
2022-09-17T02:04:39.719Z,1003.83
2022-09-17T02:05:14.898Z,1003.82
2022-09-17T02:05:50.164Z,1003.81
2022-09-17T02:06:25.325Z,1003.80
2022-09-17T02:07:00.747Z,1003.78
2022-09-17T02:07:36.125Z,1003.81
2022-09-17T02:08:11.256Z,1003.79
2022-09-17T02:08:46.614Z,1003.86
2022-09-17T02:09:22.219Z,1003.87
2022-09-17T02:09:57.442Z,1003.83
2022-09-17T02:10:32.668Z,1003.81
2022-09-17T02:11:08.154Z,1003.81
2022-09-17T02:11:43.468Z,1003.81
2022-09-17T02:12:18.815Z,1003.83
2022-09-17T02:12:54.182Z,1003.78
2022-09-17T02:13:29.254Z,1003.79
2022-09-17T02:14:04.097Z,1003.81
2022-09-17T02:14:39.574Z,1003.81
2022-09-17T02:15:14.688Z,1003.83
2022-09-17T02:15:49.989Z,1003.84
2022-09-17T02:16:25.252Z,1003.80
2022-09-17T02:17:00.538Z,1003.84
2022-09-17T02:17:35.648Z,1003.86
2022-09-17T02:18:11.166Z,1003.86
2022-09-17T02:18:46.589Z,1003.88
2022-09-17T02:19:21.661Z,1003.84
2022-09-17T02:19:56.801Z,1003.86
2022-09-17T02:20:32.130Z,1003.85
2022-09-17T02:21:07.158Z,1003.85
2022-09-17T02:21:42.199Z,1003.86
2022-09-17T02:22:17.218Z,1003.84
2022-09-17T02:22:52.403Z,1003.87
2022-09-17T02:23:28.120Z,1003.82
2022-09-17T02:24:03.505Z,1003.82
2022-09-17T02:24:38.732Z,1003.81
2022-09-17T02:25:14.127Z,1003.84
2022-09-17T02:25:49.423Z,1003.79
2022-09-17T02:26:24.653Z,1003.79
2022-09-17T02:26:59.965Z,1003.80
2022-09-17T02:27:35.375Z,1003.80
2022-09-17T02:28:10.476Z,1003.84
2022-09-17T02:28:45.509Z,1003.86
2022-09-17T02:29:20.609Z,1003.87
2022-09-17T02:29:55.841Z,1003.89
2022-09-17T02:30:30.953Z,1003.89
2022-09-17T02:31:06.528Z,1003.86
2022-09-17T02:31:42.054Z,1003.88
2022-09-17T02:32:17.399Z,1003.90
2022-09-17T02:32:52.593Z,1003.87
2022-09-17T02:33:27.811Z,1003.85
2022-09-17T02:34:02.904Z,1003.90
2022-09-17T02:34:38.534Z,1003.86
2022-09-17T02:35:13.652Z,1003.85
2022-09-17T02:35:49.082Z,1003.88
2022-09-17T02:36:24.274Z,1003.85
2022-09-17T02:36:59.432Z,1003.91
2022-09-17T02:37:34.365Z,1003.86
2022-09-17T02:38:09.671Z,1003.89
2022-09-17T02:38:44.969Z,1003.91
2022-09-17T02:39:20.395Z,1003.89
2022-09-17T02:39:55.753Z,1003.88
2022-09-17T02:40:31.011Z,1003.92
2022-09-17T02:41:06.055Z,1003.87
2022-09-17T02:41:41.397Z,1003.91
2022-09-17T02:42:16.658Z,1003.92
2022-09-17T02:42:52.165Z,1003.90
2022-09-17T02:43:27.525Z,1003.86
2022-09-17T02:44:02.985Z,1003.88
2022-09-17T02:44:38.180Z,1003.87
2022-09-17T02:45:13.319Z,1003.91
2022-09-17T02:45:48.625Z,1003.89
2022-09-17T02:46:23.939Z,1003.87
2022-09-17T02:46:59.186Z,1003.91
2022-09-17T02:47:34.546Z,1003.92
2022-09-17T02:48:09.913Z,1003.90
2022-09-17T02:48:45.149Z,1003.91
2022-09-17T02:49:20.662Z,1003.95
2022-09-17T02:49:55.881Z,1003.91
2022-09-17T02:50:30.898Z,1003.95
2022-09-17T02:51:06.316Z,1003.94
2022-09-17T02:51:41.527Z,1003.92
2022-09-17T02:52:17.006Z,1003.91
2022-09-17T02:52:52.330Z,1003.95
2022-09-17T02:53:27.345Z,1003.94
2022-09-17T02:54:02.541Z,1003.93
2022-09-17T02:54:37.799Z,1003.90
2022-09-17T02:55:13.016Z,1003.95
2022-09-17T02:55:48.587Z,1003.97
2022-09-17T02:56:23.877Z,1003.94
2022-09-17T02:56:59.191Z,1003.94
2022-09-17T02:57:34.436Z,1003.94
2022-09-17T02:58:09.686Z,1003.92
2022-09-17T02:58:44.771Z,1003.91
2022-09-17T02:59:20.282Z,1003.87
2022-09-17T02:59:55.396Z,1003.91
2022-09-17T03:00:30.545Z,1003.91
2022-09-17T03:01:05.892Z,1003.90
2022-09-17T03:01:41.092Z,1003.92
2022-09-17T03:02:16.409Z,1003.93
2022-09-17T03:02:51.890Z,1003.90
2022-09-17T03:03:27.118Z,1003.87
2022-09-17T03:04:02.453Z,1003.91
2022-09-17T03:04:37.746Z,1003.90
2022-09-17T03:05:13.065Z,1003.91
2022-09-17T03:05:48.660Z,1003.95
2022-09-17T03:06:24.064Z,1003.93
2022-09-17T03:06:59.374Z,1003.93
2022-09-17T03:07:34.695Z,1003.98
2022-09-17T03:08:10.216Z,1003.96
2022-09-17T03:08:45.369Z,1003.94
2022-09-17T03:09:20.491Z,1003.93
2022-09-17T03:09:55.924Z,1003.91
2022-09-17T03:10:31.043Z,1003.94
2022-09-17T03:11:06.462Z,1003.96
2022-09-17T03:11:41.971Z,1003.97
2022-09-17T03:12:17.192Z,1003.94
2022-09-17T03:12:52.501Z,1003.95
2022-09-17T03:13:27.624Z,1003.99
2022-09-17T03:14:02.664Z,1003.96
2022-09-17T03:14:38.293Z,1003.98
2022-09-17T03:15:13.300Z,1003.95
2022-09-17T03:15:48.666Z,1003.90
2022-09-17T03:16:23.924Z,1003.92
2022-09-17T03:16:59.279Z,1003.95
2022-09-17T03:17:34.669Z,1003.94
2022-09-17T03:18:09.779Z,1003.97
2022-09-17T03:18:45.184Z,1003.95
2022-09-17T03:19:20.726Z,1003.98
2022-09-17T03:19:56.151Z,1003.98
2022-09-17T03:20:31.377Z,1004.01
2022-09-17T03:21:06.871Z,1004.00
2022-09-17T03:21:42.123Z,1003.99
2022-09-17T03:22:17.639Z,1004.01
2022-09-17T03:22:52.753Z,1003.98
2022-09-17T03:23:27.900Z,1004.01
2022-09-17T03:24:03.091Z,1004.00
2022-09-17T03:24:38.394Z,1004.01
2022-09-17T03:25:13.735Z,1004.00
2022-09-17T03:25:48.936Z,1004.10
2022-09-17T03:26:23.970Z,1004.02
2022-09-17T03:26:59.162Z,1004.07
2022-09-17T03:27:34.515Z,1004.02
2022-09-17T03:28:09.729Z,1004.05
2022-09-17T03:28:44.865Z,1004.02
2022-09-17T03:29:20.171Z,1004.03
2022-09-17T03:29:55.695Z,1003.99
2022-09-17T03:30:30.883Z,1004.06
2022-09-17T03:31:06.064Z,1004.07
2022-09-17T03:31:41.304Z,1004.08
2022-09-17T03:32:16.375Z,1004.03
2022-09-17T03:32:51.917Z,1004.08
2022-09-17T03:33:27.300Z,1004.08
2022-09-17T03:34:02.605Z,1004.08
2022-09-17T03:34:37.814Z,1004.02
2022-09-17T03:35:12.951Z,1004.03
2022-09-17T03:35:47.994Z,1004.11
2022-09-17T03:36:23.106Z,1004.07
2022-09-17T03:36:58.449Z,1004.07
2022-09-17T03:37:33.575Z,1004.05
2022-09-17T03:38:08.686Z,1004.02
2022-09-17T03:38:44.031Z,1004.05
2022-09-17T03:39:19.379Z,1004.01
2022-09-17T03:39:54.415Z,1004.05
2022-09-17T03:40:29.853Z,1004.06
2022-09-17T03:41:05.146Z,1004.05
2022-09-17T03:41:40.557Z,1004.03
2022-09-17T03:42:15.849Z,1004.06
2022-09-17T03:42:51.053Z,1004.05
2022-09-17T03:43:26.051Z,1004.04
2022-09-17T03:44:01.479Z,1004.08
2022-09-17T03:44:37.084Z,1004.09
2022-09-17T03:45:12.612Z,1004.05
2022-09-17T03:45:47.773Z,1004.03
2022-09-17T03:46:22.818Z,1004.03
2022-09-17T03:46:58.093Z,1004.03
2022-09-17T03:47:33.349Z,1004.04
2022-09-17T03:48:08.669Z,1004.00
2022-09-17T03:48:43.781Z,1004.08
2022-09-17T03:49:19.065Z,1004.02
2022-09-17T03:49:54.588Z,1004.00
2022-09-17T03:50:29.895Z,1004.10
2022-09-17T03:51:05.233Z,1003.99
2022-09-17T03:51:40.246Z,1004.00
2022-09-17T03:52:15.466Z,1004.04
2022-09-17T03:52:50.980Z,1004.07
2022-09-17T03:53:26.480Z,1004.05
2022-09-17T03:54:01.772Z,1004.04
2022-09-17T03:54:36.992Z,1004.05
2022-09-17T03:55:12.341Z,1004.08
2022-09-17T03:55:47.262Z,1004.09
2022-09-17T03:56:22.392Z,1004.09
2022-09-17T03:56:57.545Z,1004.09
2022-09-17T03:57:32.957Z,1004.11
2022-09-17T03:58:07.988Z,1004.13
2022-09-17T03:58:43.310Z,1004.10
2022-09-17T03:59:18.382Z,1004.08
2022-09-17T03:59:53.572Z,1004.10
2022-09-17T04:00:28.634Z,1004.10
2022-09-17T04:01:03.839Z,1004.12
2022-09-17T04:01:39.462Z,1004.12
2022-09-17T04:02:14.856Z,1004.10
2022-09-17T04:02:50.065Z,1004.10
2022-09-17T04:03:25.317Z,1004.10
2022-09-17T04:04:00.571Z,1004.10
2022-09-17T04:04:35.439Z,1004.08
2022-09-17T04:05:10.626Z,1004.09
2022-09-17T04:05:45.698Z,1004.05
2022-09-17T04:06:21.003Z,1004.06
2022-09-17T04:06:56.508Z,1004.06
2022-09-17T04:07:31.629Z,1004.07
2022-09-17T04:08:06.936Z,1004.06
2022-09-17T04:08:42.218Z,1004.06
2022-09-17T04:09:17.516Z,1004.11
2022-09-17T04:09:52.422Z,1004.11
2022-09-17T04:10:27.311Z,1004.16
2022-09-17T04:11:02.690Z,1004.13
2022-09-17T04:11:38.101Z,1004.10
2022-09-17T04:12:13.333Z,1004.15
2022-09-17T04:12:48.411Z,1004.16
2022-09-17T04:13:23.820Z,1004.17
2022-09-17T04:13:58.986Z,1004.17
2022-09-17T04:14:34.412Z,1004.16
2022-09-17T04:15:09.640Z,1004.15
2022-09-17T04:15:44.917Z,1004.17
2022-09-17T04:16:19.963Z,1004.14
2022-09-17T04:16:55.239Z,1004.13
2022-09-17T04:17:31.150Z,1004.21
2022-09-17T04:18:06.564Z,1004.21
2022-09-17T04:18:42.067Z,1004.22
2022-09-17T04:19:17.214Z,1004.23
2022-09-17T04:19:52.937Z,1004.19
2022-09-17T04:20:28.220Z,1004.21
2022-09-17T04:21:03.564Z,1004.22
2022-09-17T04:21:39.157Z,1004.22
2022-09-17T04:22:14.472Z,1004.24
2022-09-17T04:22:49.814Z,1004.20
2022-09-17T04:23:24.832Z,1004.23
2022-09-17T04:24:00.141Z,1004.23
2022-09-17T04:24:35.241Z,1004.25
2022-09-17T04:25:10.464Z,1004.27
2022-09-17T04:25:45.772Z,1004.22
2022-09-17T04:26:20.915Z,1004.22
2022-09-17T04:26:56.226Z,1004.27
2022-09-17T04:27:31.642Z,1004.24
2022-09-17T04:28:06.749Z,1004.23
2022-09-17T04:28:42.370Z,1004.27
2022-09-17T04:29:17.548Z,1004.33
2022-09-17T04:29:52.832Z,1004.28
2022-09-17T04:30:28.339Z,1004.28
2022-09-17T04:31:03.512Z,1004.28
2022-09-17T04:31:38.633Z,1004.30
2022-09-17T04:32:13.958Z,1004.28
2022-09-17T04:32:49.159Z,1004.33
2022-09-17T04:33:24.264Z,1004.31
2022-09-17T04:33:59.577Z,1004.37
2022-09-17T04:34:34.961Z,1004.29
2022-09-17T04:35:10.351Z,1004.34
2022-09-17T04:35:45.465Z,1004.30
2022-09-17T04:36:20.861Z,1004.31
2022-09-17T04:36:56.043Z,1004.38
2022-09-17T04:37:31.145Z,1004.36
2022-09-17T04:38:06.589Z,1004.41
2022-09-17T04:38:41.975Z,1004.43
2022-09-17T04:39:17.297Z,1004.44
2022-09-17T04:39:52.694Z,1004.40
2022-09-17T04:40:27.749Z,1004.41
2022-09-17T04:41:03.075Z,1004.38
2022-09-17T04:41:38.267Z,1004.35
2022-09-17T04:42:13.567Z,1004.35
2022-09-17T04:42:48.607Z,1004.34
2022-09-17T04:43:23.803Z,1004.34
2022-09-17T04:43:59.024Z,1004.38
2022-09-17T04:44:34.150Z,1004.37
2022-09-17T04:45:09.571Z,1004.39
2022-09-17T04:45:44.707Z,1004.32
2022-09-17T04:46:20.007Z,1004.31
2022-09-17T04:46:54.944Z,1004.33
2022-09-17T04:47:30.186Z,1004.40
2022-09-17T04:48:05.499Z,1004.36
2022-09-17T04:48:40.950Z,1004.36
2022-09-17T04:49:16.258Z,1004.29
2022-09-17T04:49:52.074Z,1004.31
2022-09-17T04:50:27.287Z,1004.32
2022-09-17T04:51:02.701Z,1004.34
2022-09-17T04:51:38.289Z,1004.28
2022-09-17T04:52:13.498Z,1004.36
2022-09-17T04:52:48.609Z,1004.30
2022-09-17T04:53:23.850Z,1004.37
2022-09-17T04:53:58.963Z,1004.35
2022-09-17T04:54:34.303Z,1004.36
2022-09-17T04:55:10.022Z,1004.32
2022-09-17T04:55:45.555Z,1004.37
2022-09-17T04:56:20.799Z,1004.32
2022-09-17T04:56:56.011Z,1004.36
2022-09-17T04:57:31.229Z,1004.27
2022-09-17T04:58:06.504Z,1004.33
2022-09-17T04:58:42.097Z,1004.29
2022-09-17T04:59:17.465Z,1004.27
2022-09-17T04:59:52.749Z,1004.29
2022-09-17T05:00:27.961Z,1004.26
2022-09-17T05:01:03.323Z,1004.27
2022-09-17T05:01:38.525Z,1004.30
2022-09-17T05:02:13.699Z,1004.30
2022-09-17T05:02:48.869Z,1004.28
2022-09-17T05:03:24.096Z,1004.27
2022-09-17T05:03:59.304Z,1004.25
2022-09-17T05:04:34.431Z,1004.31
2022-09-17T05:05:09.738Z,1004.29
2022-09-17T05:05:44.984Z,1004.31
2022-09-17T05:06:20.412Z,1004.30
2022-09-17T05:06:55.613Z,1004.32
2022-09-17T05:07:31.158Z,1004.23
2022-09-17T05:08:06.632Z,1004.34
2022-09-17T05:08:41.983Z,1004.34
2022-09-17T05:09:17.089Z,1004.34
2022-09-17T05:09:52.313Z,1004.37
2022-09-17T05:10:27.527Z,1004.34
2022-09-17T05:11:02.831Z,1004.38
2022-09-17T05:11:38.453Z,1004.35
2022-09-17T05:12:13.677Z,1004.40
2022-09-17T05:12:49.217Z,1004.40
2022-09-17T05:13:24.626Z,1004.40
2022-09-17T05:13:59.922Z,1004.39
2022-09-17T05:14:35.129Z,1004.34
2022-09-17T05:15:10.360Z,1004.39
2022-09-17T05:15:45.589Z,1004.38
2022-09-17T05:16:20.825Z,1004.36
2022-09-17T05:16:56.428Z,1004.37
2022-09-17T05:17:31.716Z,1004.39
2022-09-17T05:18:07.469Z,1004.45
2022-09-17T05:18:42.489Z,1004.42
2022-09-17T05:19:17.975Z,1004.44
2022-09-17T05:19:53.174Z,1004.40
2022-09-17T05:20:28.569Z,1004.45
2022-09-17T05:21:03.964Z,1004.43
2022-09-17T05:21:39.160Z,1004.44
2022-09-17T05:22:16.431Z,1004.46
2022-09-17T05:22:49.644Z,1004.45
2022-09-17T05:23:24.843Z,1004.47
2022-09-17T05:24:00.185Z,1004.44
2022-09-17T05:24:35.289Z,1004.50
2022-09-17T05:25:10.503Z,1004.51
2022-09-17T05:25:45.825Z,1004.52
2022-09-17T05:26:21.243Z,1004.54
2022-09-17T05:26:56.534Z,1004.56
2022-09-17T05:27:31.640Z,1004.53
2022-09-17T05:28:06.819Z,1004.55
2022-09-17T05:28:42.140Z,1004.52
2022-09-17T05:29:17.349Z,1004.47
2022-09-17T05:29:52.676Z,1004.51
2022-09-17T05:30:27.667Z,1004.51
2022-09-17T05:31:03.227Z,1004.52
2022-09-17T05:31:38.322Z,1004.51
2022-09-17T05:32:13.569Z,1004.52
2022-09-17T05:32:49.041Z,1004.57
2022-09-17T05:33:24.145Z,1004.58
2022-09-17T05:33:59.260Z,1004.58
2022-09-17T05:34:34.458Z,1004.60
2022-09-17T05:35:09.627Z,1004.61
2022-09-17T05:35:44.821Z,1004.62
2022-09-17T05:36:19.960Z,1004.59
2022-09-17T05:36:55.263Z,1004.65
2022-09-17T05:37:30.400Z,1004.64
2022-09-17T05:38:05.903Z,1004.65
2022-09-17T05:38:41.206Z,1004.63
2022-09-17T05:39:16.329Z,1004.63
2022-09-17T05:39:51.615Z,1004.63
2022-09-17T05:40:26.886Z,1004.65
2022-09-17T05:41:02.024Z,1004.67
2022-09-17T05:41:37.276Z,1004.63
2022-09-17T05:42:12.385Z,1004.62
2022-09-17T05:42:47.615Z,1004.59
2022-09-17T05:43:22.703Z,1004.63
2022-09-17T05:43:57.883Z,1004.59
2022-09-17T05:44:33.303Z,1004.60
2022-09-17T05:45:08.539Z,1004.59
2022-09-17T05:45:43.729Z,1004.59
2022-09-17T05:46:19.117Z,1004.64
2022-09-17T05:46:54.351Z,1004.62
2022-09-17T05:47:29.536Z,1004.60
2022-09-17T05:48:04.849Z,1004.57
2022-09-17T05:48:40.380Z,1004.64
2022-09-17T05:49:15.509Z,1004.64
2022-09-17T05:49:50.955Z,1004.69
2022-09-17T05:50:26.038Z,1004.63
2022-09-17T05:51:01.355Z,1004.66
2022-09-17T05:51:36.503Z,1004.67
2022-09-17T05:52:11.845Z,1004.65
2022-09-17T05:52:46.865Z,1004.61
2022-09-17T05:53:21.892Z,1004.69
2022-09-17T05:53:57.414Z,1004.68
2022-09-17T05:54:32.744Z,1004.71
2022-09-17T05:55:07.738Z,1004.72
2022-09-17T05:55:42.868Z,1004.70
2022-09-17T05:56:18.484Z,1004.72
2022-09-17T05:56:54.126Z,1004.72
2022-09-17T05:57:29.343Z,1004.71
2022-09-17T05:58:04.638Z,1004.74
2022-09-17T05:58:39.885Z,1004.74
2022-09-17T05:59:15.114Z,1004.73
2022-09-17T05:59:50.316Z,1004.74
2022-09-17T06:00:25.402Z,1004.77
2022-09-17T06:01:00.495Z,1004.74
2022-09-17T06:01:36.125Z,1004.81
2022-09-17T06:02:11.381Z,1004.84
2022-09-17T06:02:46.810Z,1004.81
2022-09-17T06:03:21.762Z,1004.82
2022-09-17T06:03:57.095Z,1004.85
2022-09-17T06:04:34.933Z,1004.83
2022-09-17T06:05:07.636Z,1004.86
2022-09-17T06:05:43.083Z,1004.83
2022-09-17T06:06:18.146Z,1004.82
2022-09-17T06:06:53.438Z,1004.86
2022-09-17T06:07:28.568Z,1004.94
2022-09-17T06:08:03.662Z,1004.90
2022-09-17T06:08:38.657Z,1004.92
2022-09-17T06:09:14.059Z,1004.91
2022-09-17T06:09:49.057Z,1004.90
2022-09-17T06:10:24.398Z,1004.93
2022-09-17T06:11:02.434Z,1004.94
2022-09-17T06:11:34.521Z,1004.95
2022-09-17T06:12:09.839Z,1004.96
2022-09-17T06:12:45.264Z,1004.97
2022-09-17T06:13:20.547Z,1004.93
2022-09-17T06:13:55.778Z,1004.93
2022-09-17T06:14:31.118Z,1004.91
2022-09-17T06:15:06.642Z,1004.95
2022-09-17T06:15:42.156Z,1004.97
2022-09-17T06:16:17.336Z,1004.91
2022-09-17T06:16:52.565Z,1004.95
2022-09-17T06:17:27.984Z,1004.93
2022-09-17T06:18:03.189Z,1004.93
2022-09-17T06:18:38.190Z,1004.98
2022-09-17T06:19:13.624Z,1004.95
2022-09-17T06:19:48.835Z,1004.93
2022-09-17T06:20:24.140Z,1005.00
2022-09-17T06:20:59.452Z,1004.99
2022-09-17T06:21:34.853Z,1004.97
2022-09-17T06:22:10.066Z,1005.01
2022-09-17T06:22:45.379Z,1005.00
2022-09-17T06:23:20.954Z,1005.00
2022-09-17T06:23:56.148Z,1005.01
2022-09-17T06:24:31.246Z,1004.99
2022-09-17T06:25:06.252Z,1005.02
2022-09-17T06:25:41.502Z,1005.02
2022-09-17T06:26:16.804Z,1005.04
2022-09-17T06:26:51.919Z,1005.04
2022-09-17T06:27:27.027Z,1005.05
2022-09-17T06:28:02.490Z,1005.03
2022-09-17T06:28:41.512Z,1005.05
2022-09-17T06:29:12.947Z,1004.98
2022-09-17T06:29:48.352Z,1004.99
2022-09-17T06:30:23.788Z,1005.00
2022-09-17T06:30:58.897Z,1005.04
2022-09-17T06:31:34.303Z,1005.00
2022-09-17T06:32:09.766Z,1005.03
2022-09-17T06:32:45.416Z,1005.04
2022-09-17T06:33:20.734Z,1005.04
2022-09-17T06:33:58.339Z,1005.05
2022-09-17T06:34:31.476Z,1005.02
2022-09-17T06:35:06.503Z,1005.03
2022-09-17T06:35:41.988Z,1004.99
2022-09-17T06:36:17.440Z,1005.02
2022-09-17T06:36:52.758Z,1005.00
2022-09-17T06:37:28.116Z,1005.00
2022-09-17T06:38:03.429Z,1005.01
2022-09-17T06:38:38.646Z,1005.01
2022-09-17T06:39:13.865Z,1004.95
2022-09-17T06:39:49.082Z,1005.03
2022-09-17T06:40:24.131Z,1004.97
2022-09-17T06:40:59.316Z,1004.99
2022-09-17T06:41:34.224Z,1005.00
2022-09-17T06:42:09.655Z,1004.97
2022-09-17T06:42:44.970Z,1005.00
2022-09-17T06:43:20.474Z,1005.03
2022-09-17T06:43:55.604Z,1004.98
2022-09-17T06:44:30.835Z,1004.99
2022-09-17T06:45:10.137Z,1004.99
2022-09-17T06:45:41.590Z,1005.02
2022-09-17T06:46:17.160Z,1004.96
2022-09-17T06:46:52.339Z,1004.98
2022-09-17T06:47:27.750Z,1004.99
2022-09-17T06:48:03.158Z,1004.96
2022-09-17T06:48:38.402Z,1004.98
2022-09-17T06:49:13.800Z,1004.98
2022-09-17T06:49:49.237Z,1005.02
2022-09-17T06:50:24.527Z,1005.03
2022-09-17T06:50:59.967Z,1005.00
2022-09-17T06:51:35.072Z,1005.03
2022-09-17T06:52:10.200Z,1005.06
2022-09-17T06:52:45.440Z,1005.03
2022-09-17T06:53:20.748Z,1005.04
2022-09-17T06:53:55.885Z,1005.07
2022-09-17T06:54:31.071Z,1005.06
2022-09-17T06:55:06.769Z,1005.07
2022-09-17T06:55:41.981Z,1005.08
2022-09-17T06:56:17.101Z,1005.07
2022-09-17T06:56:52.335Z,1005.11
2022-09-17T06:57:27.430Z,1005.14
2022-09-17T06:58:02.844Z,1005.09
2022-09-17T06:58:37.836Z,1005.11
2022-09-17T06:59:13.053Z,1005.10
2022-09-17T06:59:48.472Z,1005.15
2022-09-17T07:00:23.612Z,1005.09
2022-09-17T07:00:59.085Z,1005.06
2022-09-17T07:01:34.287Z,1005.03
2022-09-17T07:02:09.410Z,1005.09
2022-09-17T07:02:44.559Z,1005.07
2022-09-17T07:03:23.228Z,1005.09
2022-09-17T07:03:55.409Z,1005.11
2022-09-17T07:04:30.615Z,1005.12
2022-09-17T07:05:06.034Z,1005.23
2022-09-17T07:05:41.360Z,1005.14
2022-09-17T07:06:16.778Z,1005.12